Time;durP1;ratioP1;P1;durP2;ratioP2;P2;SDS_P1;SDS_P2;PMS_P1;PMS_P2;Temp;Humidity;BMP_temperature;BMP_pressure;BME280_temperature;BME280_humidity;BME280_pressure;Samples;Min_cycle;Max_cycle;Signal;HPM_P1;HPM_P2
2023/04/18 00:00:04;;;;;;;4.30;3.90;;;;;;;15.43;63.44;94071.91;5108869;28;20188;-48
2023/04/18 00:02:35;;;;;;;6.30;4.00;;;;;;;15.43;63.56;94065.97;5098211;28;20237;-48
2023/04/18 00:05:03;;;;;;;4.43;4.03;;;;;;;15.42;63.84;94061.81;5088641;28;20258;-49
2023/04/18 00:07:29;;;;;;;4.67;4.20;;;;;;;15.41;63.95;94063.56;5088437;28;20193;-48
2023/04/18 00:09:56;;;;;;;4.43;4.03;;;;;;;15.41;63.92;94066.13;5088476;28;20241;-48
2023/04/18 00:12:23;;;;;;;4.43;4.00;;;;;;;15.41;64.06;94063.56;5096577;28;20185;-48
2023/04/18 00:14:51;;;;;;;4.50;4.07;;;;;;;15.41;63.97;94075.66;5109049;28;20661;-49
2023/04/18 00:17:19;;;;;;;4.10;3.67;;;;;;;15.41;63.77;94070.50;5108885;28;20326;-48
2023/04/18 00:19:47;;;;;;;7.07;4.03;;;;;;;15.41;63.66;94066.13;5109095;28;20207;-49
2023/04/18 00:22:15;;;;;;;4.53;3.93;;;;;;;15.41;63.90;94060.19;5108606;28;20257;-47
2023/04/18 00:24:42;;;;;;;4.90;4.40;;;;;;;15.40;63.98;94067.13;5107415;28;20213;-47
2023/04/18 00:27:09;;;;;;;3.80;3.50;;;;;;;15.37;63.86;94064.94;5108176;28;20181;-48
2023/04/18 00:29:36;;;;;;;4.20;3.80;;;;;;;15.41;63.96;94063.56;5109295;28;20221;-47
2023/04/18 00:32:03;;;;;;;4.20;3.90;;;;;;;15.42;63.82;94064.38;5108948;28;20324;-48
2023/04/18 00:34:30;;;;;;;4.20;3.80;;;;;;;15.41;64.03;94071.28;5108531;28;20817;-48
2023/04/18 00:36:58;;;;;;;3.80;3.50;;;;;;;15.41;64.15;94068.72;5108713;28;20197;-49
2023/04/18 00:39:25;;;;;;;4.20;3.80;;;;;;;15.42;64.13;94067.75;5108699;28;20246;-49
2023/04/18 00:41:51;;;;;;;4.67;4.27;;;;;;;15.42;64.05;94062.59;5108614;28;20183;-48
2023/04/18 00:44:18;;;;;;;4.70;4.20;;;;;;;15.41;63.99;94055.81;5108910;28;20642;-48
2023/04/18 00:46:45;;;;;;;3.93;3.63;;;;;;;15.40;64.09;94058.59;5110204;28;20192;-49
2023/04/18 00:49:12;;;;;;;5.77;4.53;;;;;;;15.39;64.16;94054.44;5111576;28;20839;-48
2023/04/18 00:51:40;;;;;;;5.73;4.60;;;;;;;15.40;64.20;94053.44;5112346;28;20197;-48
2023/04/18 00:54:11;;;;;;;7.83;4.57;;;;;;;15.38;63.94;94056.22;5112404;28;20197;-48
2023/04/18 00:56:39;;;;;;;4.73;4.17;;;;;;;15.37;64.21;94046.91;5112190;28;20189;-49
2023/04/18 00:59:06;;;;;;;5.53;4.50;;;;;;;15.38;64.09;94048.47;5112526;28;20377;-48
2023/04/18 01:01:33;;;;;;;4.63;4.10;;;;;;;15.38;64.10;94045.13;5112213;28;20211;-50
2023/04/18 01:04:00;;;;;;;4.63;4.23;;;;;;;15.36;64.15;94040.13;5111557;28;20277;-48
2023/04/18 01:06:27;;;;;;;4.60;4.20;;;;;;;15.37;64.00;94038.34;5112023;28;20181;-48
2023/04/18 01:08:55;;;;;;;5.10;4.00;;;;;;;15.36;64.17;94044.47;5111846;28;20228;-48
2023/04/18 01:11:24;;;;;;;4.17;3.87;;;;;;;15.36;64.32;94041.91;5103182;28;20304;-48
2023/04/18 01:14:01;;;;;;;4.90;4.40;;;;;;;15.34;64.24;94041.31;5091888;28;20213;-48
2023/04/18 01:16:28;;;;;;;5.40;4.90;;;;;;;15.36;64.15;94041.91;5091500;28;20209;-51
2023/04/18 01:18:56;;;;;;;5.27;4.73;;;;;;;15.36;64.46;94041.91;5092078;28;20254;-48
2023/04/18 01:21:22;;;;;;;7.07;4.57;;;;;;;15.36;64.57;94037.53;5091223;28;20276;-48
2023/04/18 01:23:50;;;;;;;5.37;4.00;;;;;;;15.34;64.39;94039.53;5072741;28;20190;-48
2023/04/18 01:26:19;;;;;;;5.00;3.97;;;;;;;15.34;64.58;94038.72;5091610;28;20185;-48
2023/04/18 01:28:45;;;;;;;6.53;4.83;;;;;;;15.34;64.39;94041.31;5091363;28;20217;-48
2023/04/18 01:31:12;;;;;;;5.00;4.60;;;;;;;15.30;64.61;94043.44;5091124;28;20235;-49
2023/04/18 01:33:39;;;;;;;5.10;4.60;;;;;;;15.31;64.72;94037.31;5091460;28;20197;-48
2023/04/18 01:36:06;;;;;;;5.27;4.77;;;;;;;15.30;64.70;94041.66;5090964;28;20197;-48
2023/04/18 01:38:33;;;;;;;4.70;4.30;;;;;;;15.28;64.73;94037.66;5091077;28;20197;-48
2023/04/18 01:41:01;;;;;;;4.93;4.40;;;;;;;15.29;65.04;94042.66;5100424;28;20317;-49
2023/04/18 01:43:29;;;;;;;5.20;4.70;;;;;;;15.28;65.03;94035.09;5111412;28;20258;-49
2023/04/18 01:45:55;;;;;;;7.50;5.53;;;;;;;15.27;65.00;94039.44;5111307;28;20242;-49
2023/04/18 01:48:22;;;;;;;6.27;5.63;;;;;;;15.25;65.19;94038.84;5103016;28;20186;-48
2023/04/18 01:50:49;;;;;;;5.53;4.80;;;;;;;15.24;65.14;94037.25;5090885;28;20725;-48
2023/04/18 01:53:17;;;;;;;7.03;5.47;;;;;;;15.22;65.38;94038.41;5091063;28;20228;-48
2023/04/18 01:55:43;;;;;;;6.00;5.30;;;;;;;15.21;65.26;94039.38;5096462;28;20279;-48
2023/04/18 01:58:10;;;;;;;5.00;4.17;;;;;;;15.19;65.64;94026.66;5110855;28;20197;-47
2023/04/18 02:00:38;;;;;;;5.40;4.57;;;;;;;15.18;65.61;94030.22;5110484;28;20201;-48
2023/04/18 02:03:05;;;;;;;5.83;5.27;;;;;;;15.14;65.54;94015.31;5111126;28;20661;-48
2023/04/18 02:05:32;;;;;;;5.40;4.90;;;;;;;15.17;65.71;94030.44;5111022;28;20185;-48
2023/04/18 02:07:59;;;;;;;6.80;4.50;;;;;;;15.16;65.80;94027.06;5110957;28;20211;-49
2023/04/18 02:10:25;;;;;;;6.13;5.10;;;;;;;15.16;65.78;94034.78;5101453;28;20229;-48
2023/04/18 02:12:52;;;;;;;6.63;4.53;;;;;;;15.16;65.71;94031.41;5090463;28;20189;-47
2023/04/18 02:15:19;;;;;;;5.07;4.67;;;;;;;15.17;65.60;94035.56;5090426;28;20276;-48
2023/04/18 02:17:47;;;;;;;4.97;4.47;;;;;;;15.15;65.72;94033.16;5090348;28;20193;-47
2023/04/18 02:20:14;;;;;;;5.57;4.63;;;;;;;15.16;65.86;94039.13;5090274;28;20237;-48
2023/04/18 02:22:41;;;;;;;7.20;5.10;;;;;;;15.14;65.82;94043.66;5089975;28;20194;-49
2023/04/18 02:25:09;;;;;;;6.47;5.50;;;;;;;15.15;66.06;94045.25;5098695;28;20265;-48
2023/04/18 02:27:36;;;;;;;5.17;4.67;;;;;;;15.15;65.93;94042.66;5110623;28;20235;-48
2023/04/18 02:30:03;;;;;;;6.07;5.03;;;;;;;15.14;66.06;94041.09;5110649;28;20216;-49
2023/04/18 02:32:30;;;;;;;5.50;4.53;;;;;;;15.12;66.14;94040.47;5110572;28;20658;-48
2023/04/18 02:34:58;;;;;;;5.33;4.83;;;;;;;15.13;65.98;94047.22;5110133;28;20205;-48
2023/04/18 02:37:25;;;;;;;4.80;4.40;;;;;;;15.12;66.02;94050.78;5110710;28;20192;-48
2023/04/18 02:39:51;;;;;;;5.10;4.70;;;;;;;15.09;66.17;94053.72;5109840;28;20657;-48
2023/04/18 02:42:18;;;;;;;5.60;4.80;;;;;;;15.10;66.36;94047.56;5110571;28;20254;-49
2023/04/18 02:44:45;;;;;;;5.07;4.57;;;;;;;15.10;66.38;94050.94;5110249;28;20242;-49
2023/04/18 02:47:12;;;;;;;5.53;5.03;;;;;;;15.09;66.38;94039.06;5110231;28;20203;-48
2023/04/18 02:49:38;;;;;;;5.93;5.33;;;;;;;15.10;66.32;94045.78;5109952;28;20224;-48
2023/04/18 02:52:06;;;;;;;5.43;4.93;;;;;;;15.10;66.23;94048.38;5110289;28;20197;-48
2023/04/18 02:54:33;;;;;;;4.90;4.50;;;;;;;15.10;66.34;94040.63;5108810;28;20196;-48
2023/04/18 02:57:00;;;;;;;5.63;5.03;;;;;;;15.11;66.54;94041.44;5109720;28;20189;-49
2023/04/18 02:59:27;;;;;;;6.07;5.47;;;;;;;15.10;66.46;94043.22;5100184;28;20277;-47
2023/04/18 03:01:53;;;;;;;5.67;5.00;;;;;;;15.12;66.32;94043.06;5110360;28;20188;-47
2023/04/18 03:04:20;;;;;;;7.00;5.07;;;;;;;15.11;66.44;94039.69;5109986;28;20652;-48
2023/04/18 03:06:47;;;;;;;6.10;5.00;;;;;;;15.11;66.27;94044.84;5110076;28;20189;-49
2023/04/18 03:09:16;;;;;;;7.50;5.20;;;;;;;15.11;66.56;94050.00;5107917;28;20631;-48
2023/04/18 03:11:42;;;;;;;5.40;4.90;;;;;;;15.11;66.35;94044.00;5089175;28;20217;-49
2023/04/18 03:14:09;;;;;;;5.63;5.13;;;;;;;15.10;66.41;94048.38;5089460;28;20213;-47
2023/04/18 03:16:36;;;;;;;6.13;5.53;;;;;;;15.10;66.73;94047.56;5089066;28;20651;-47
2023/04/18 03:19:04;;;;;;;6.60;5.60;;;;;;;15.10;66.72;94048.38;5090676;28;20196;-48
2023/04/18 03:21:30;;;;;;;6.73;5.40;;;;;;;15.09;66.67;94059.66;5089650;28;20181;-48
2023/04/18 03:23:57;;;;;;;6.63;5.90;;;;;;;15.10;66.82;94070.75;5090483;28;20251;-49
2023/04/18 03:26:25;;;;;;;6.40;5.70;;;;;;;15.09;66.57;94069.94;5101074;28;20189;-48
2023/04/18 03:28:52;;;;;;;7.57;6.40;;;;;;;15.08;66.72;94070.94;5112415;28;20193;-49
2023/04/18 03:31:19;;;;;;;7.10;6.17;;;;;;;15.08;66.68;94073.50;5105962;28;20277;-49
2023/04/18 03:33:46;;;;;;;7.90;6.00;;;;;;;14.95;66.64;94053.56;5091495;28;20200;-47
2023/04/18 03:36:16;;;;;;;6.57;5.97;;;;;;;15.08;66.96;94081.25;5090426;28;20230;-48
2023/04/18 03:38:42;;;;;;;7.00;6.37;;;;;;;15.06;66.86;94075.47;5106624;28;20275;-47
2023/04/18 03:41:09;;;;;;;7.33;6.30;;;;;;;15.06;66.79;94075.47;5107963;28;20197;-49
2023/04/18 03:43:37;;;;;;;7.83;5.70;;;;;;;15.06;66.94;94080.59;5090435;28;20193;-50
2023/04/18 03:46:04;;;;;;;8.20;6.37;;;;;;;15.06;66.75;94072.88;5089678;28;20216;-48
2023/04/18 03:48:34;;;;;;;8.13;6.90;;;;;;;15.08;66.83;94072.72;5088854;28;20310;-49
2023/04/18 03:51:01;;;;;;;8.07;6.97;;;;;;;15.04;66.88;94073.06;5090053;28;20217;-49
2023/04/18 03:53:28;;;;;;;6.40;5.80;;;;;;;15.04;67.14;94073.06;5103384;28;20192;-48
2023/04/18 03:55:54;;;;;;;7.07;6.37;;;;;;;14.57;67.25;94005.75;5102130;28;20194;-49
2023/04/18 03:58:22;;;;;;;8.73;6.90;;;;;;;15.03;66.99;94073.25;5091217;28;20285;-47
2023/04/18 04:00:50;;;;;;;7.00;6.17;;;;;;;15.04;67.11;94069.69;5088945;28;20193;-48
2023/04/18 04:03:17;;;;;;;6.70;6.03;;;;;;;15.03;66.96;94076.63;5089829;28;20724;-50
2023/04/18 04:05:44;;;;;;;6.97;6.17;;;;;;;15.03;67.30;94071.47;5102034;28;20178;-49
2023/04/18 04:08:11;;;;;;;7.73;6.13;;;;;;;15.03;67.34;94081.00;5088776;28;20205;-48
2023/04/18 04:10:38;;;;;;;6.07;5.57;;;;;;;15.04;67.51;94080.00;5088874;28;20222;-48
2023/04/18 04:13:04;;;;;;;6.97;6.20;;;;;;;15.05;67.54;94089.31;5089651;28;20197;-47
2023/04/18 04:15:31;;;;;;;7.20;6.50;;;;;;;15.05;67.37;94092.69;5089127;28;20254;-49
2023/04/18 04:17:59;;;;;;;7.83;6.43;;;;;;;15.05;67.77;94084.16;5089021;28;20197;-49
2023/04/18 04:20:26;;;;;;;6.70;6.00;;;;;;;15.08;67.21;94088.16;5096590;28;20657;-48
2023/04/18 04:22:54;;;;;;;7.13;6.47;;;;;;;15.08;67.73;94088.97;5108442;28;20348;-48
2023/04/18 04:25:22;;;;;;;6.17;5.57;;;;;;;15.10;67.77;94091.34;5112462;28;20185;-47
2023/04/18 04:27:52;;;;;;;8.37;6.33;;;;;;;15.12;67.62;94089.41;5113111;28;20200;-48
2023/04/18 04:30:19;;;;;;;7.30;6.60;;;;;;;15.14;67.64;94095.97;5112770;28;20220;-49
2023/04/18 04:32:46;;;;;;;6.87;6.17;;;;;;;15.14;67.51;94092.59;5112797;28;20185;-48
2023/04/18 04:35:14;;;;;;;7.13;6.47;;;;;;;15.18;67.38;94086.91;5110226;28;20196;-48
2023/04/18 04:37:42;;;;;;;7.20;6.30;;;;;;;15.22;67.43;94098.44;5111201;28;20196;-48
2023/04/18 04:40:10;;;;;;;7.33;6.63;;;;;;;15.29;67.34;94093.38;5112365;28;20691;-48
2023/04/18 04:42:39;;;;;;;6.63;5.83;;;;;;;15.35;67.04;94108.09;5112869;28;20625;-48
2023/04/18 04:45:08;;;;;;;6.93;6.23;;;;;;;15.38;67.33;94105.16;5111279;28;20198;-49
2023/04/18 04:47:35;;;;;;;6.73;6.13;;;;;;;15.40;67.43;94098.03;5112617;28;20245;-48
2023/04/18 04:50:03;;;;;;;6.07;5.47;;;;;;;15.42;67.13;94103.03;5112757;28;20248;-49
2023/04/18 04:52:32;;;;;;;6.77;6.10;;;;;;;15.44;67.19;94109.56;5112440;28;20188;-49
2023/04/18 04:54:58;;;;;;;7.37;6.20;;;;;;;15.47;67.11;94098.91;5112225;28;20654;-47
2023/04/18 04:57:25;;;;;;;7.17;6.10;;;;;;;15.50;67.08;94103.72;5112522;28;20622;-48
2023/04/18 04:59:52;;;;;;;6.77;5.97;;;;;;;15.49;67.25;94094.38;5112496;28;20189;-49
2023/04/18 05:02:21;;;;;;;6.60;6.00;;;;;;;15.59;67.19;94111.31;5112857;28;20192;-48
2023/04/18 05:04:48;;;;;;;6.50;5.90;;;;;;;15.61;67.08;94110.16;5112842;28;20243;-48
2023/04/18 05:07:15;;;;;;;6.87;5.90;;;;;;;15.57;66.93;94102.00;5112131;28;20208;-48
2023/04/18 05:09:43;;;;;;;7.30;6.50;;;;;;;15.49;67.09;94081.47;5112022;28;20318;-49
2023/04/18 05:12:10;;;;;;;6.73;6.10;;;;;;;15.25;66.86;94056.88;5111978;28;20204;-48
2023/04/18 05:14:37;;;;;;;6.17;5.53;;;;;;;15.70;66.75;94118.59;5112343;28;20185;-46
2023/04/18 05:17:04;;;;;;;6.63;6.03;;;;;;;15.76;66.56;94116.09;5111939;28;20196;-48
2023/04/18 05:19:31;;;;;;;6.80;6.20;;;;;;;15.77;66.56;94109.16;5112460;28;20283;-47
2023/04/18 05:21:57;;;;;;;6.90;5.90;;;;;;;15.94;66.31;94130.34;5112216;28;20294;-49
2023/04/18 05:24:24;;;;;;;7.23;6.53;;;;;;;15.99;66.04;94126.22;5112108;28;20193;-46
2023/04/18 05:26:53;;;;;;;6.60;5.97;;;;;;;16.03;66.13;94119.72;5111983;28;21500;-48
2023/04/18 05:29:21;;;;;;;8.03;6.13;;;;;;;15.92;66.19;94103.94;5112691;28;20258;-49
2023/04/18 05:31:47;;;;;;;8.00;5.63;;;;;;;16.02;66.11;94123.28;5111936;28;20235;-46
2023/04/18 05:34:14;;;;;;;6.60;6.00;;;;;;;16.02;66.06;94118.13;5111170;28;20189;-49
2023/04/18 05:36:41;;;;;;;6.63;6.03;;;;;;;16.07;65.99;94124.53;5111784;28;20700;-47
2023/04/18 05:39:08;;;;;;;9.73;6.60;;;;;;;16.08;66.21;94121.75;5111764;28;20219;-48
2023/04/18 05:41:35;;;;;;;6.70;6.10;;;;;;;16.14;66.00;94126.16;5112463;28;20193;-47
2023/04/18 05:44:03;;;;;;;7.03;6.37;;;;;;;16.37;65.47;94132.91;5111745;28;20193;-48
2023/04/18 05:46:30;;;;;;;7.27;6.57;;;;;;;16.67;64.55;94124.00;5112263;28;20201;-48
2023/04/18 05:48:57;;;;;;;6.80;6.20;;;;;;;16.95;64.24;94129.13;5111708;28;20189;-48
2023/04/18 05:51:25;;;;;;;6.20;5.63;;;;;;;17.23;63.73;94128.28;5111448;28;20220;-49
2023/04/18 05:53:52;;;;;;;6.40;5.90;;;;;;;17.53;63.21;94124.44;5106628;28;20189;-49
2023/04/18 05:56:19;;;;;;;9.67;4.90;;;;;;;17.90;67.16;94131.91;5101495;28;20283;-48
2023/04/18 05:58:46;;;;;;;8.07;5.00;;;;;;;18.30;68.80;94130.16;5110150;28;20208;-48
2023/04/18 06:01:15;;;;;;;5.30;4.80;;;;;;;18.56;67.54;94118.97;5110945;28;20212;-48
2023/04/18 06:03:41;;;;;;;11.67;5.43;;;;;;;18.82;66.57;94119.97;5110356;28;20204;-48
2023/04/18 06:06:08;;;;;;;6.47;5.80;;;;;;;18.99;65.78;94132.28;5111199;28;20191;-49
2023/04/18 06:08:36;;;;;;;6.00;5.40;;;;;;;18.96;65.22;94109.41;5109715;28;20660;-49
2023/04/18 06:11:03;;;;;;;6.47;5.87;;;;;;;19.16;64.97;94131.88;5110478;28;20205;-48
2023/04/18 06:13:31;;;;;;;7.13;5.77;;;;;;;19.23;64.48;94130.06;5105615;28;20224;-52
2023/04/18 06:15:58;;;;;;;6.83;6.23;;;;;;;19.26;64.05;94117.47;5087454;28;20670;-47
2023/04/18 06:18:26;;;;;;;7.73;5.83;;;;;;;19.41;63.63;94132.78;5089044;28;20178;-48
2023/04/18 06:20:54;;;;;;;9.27;5.90;;;;;;;19.44;63.51;94131.59;5089340;28;20189;-47
2023/04/18 06:23:21;;;;;;;9.37;5.80;;;;;;;19.40;63.18;94130.41;5088760;28;20255;-49
2023/04/18 06:25:48;;;;;;;6.27;5.67;;;;;;;19.30;63.02;94129.03;5088518;28;20186;-49
2023/04/18 06:28:15;;;;;;;6.30;5.70;;;;;;;19.25;62.91;94136.59;5089653;28;20196;-50
2023/04/18 06:30:41;;;;;;;9.10;6.30;;;;;;;19.15;62.69;94131.06;5088462;28;20605;-49
2023/04/18 06:33:09;;;;;;;8.40;6.60;;;;;;;19.02;62.59;94123.34;5088931;28;20657;-48
2023/04/18 06:35:38;;;;;;;8.03;6.73;;;;;;;18.94;62.36;94118.38;5088034;28;20200;-48
2023/04/18 06:38:05;;;;;;;5.77;5.27;;;;;;;18.93;62.05;94127.94;5087000;28;20186;-48
2023/04/18 06:40:32;;;;;;;6.73;6.10;;;;;;;18.90;61.90;94135.31;5087275;28;20193;-49
2023/04/18 06:42:58;;;;;;;6.77;6.17;;;;;;;18.84;61.85;94134.34;5087332;28;20189;-47
2023/04/18 06:45:25;;;;;;;7.00;6.40;;;;;;;18.81;61.48;94134.72;5086061;28;20182;-49
2023/04/18 06:47:52;;;;;;;7.50;6.43;;;;;;;18.76;61.51;94132.75;5087560;28;20193;-49
2023/04/18 06:50:19;;;;;;;7.00;6.40;;;;;;;18.82;61.17;94132.94;5105585;28;20226;-49
2023/04/18 06:52:47;;;;;;;8.17;6.30;;;;;;;18.85;61.01;94141.09;5107267;28;20191;-49
2023/04/18 06:55:14;;;;;;;6.93;6.27;;;;;;;18.88;60.82;94132.94;5107717;28;20219;-48
2023/04/18 06:57:42;;;;;;;7.80;6.43;;;;;;;18.88;60.62;94124.38;5107296;28;20219;-48
2023/04/18 07:00:10;;;;;;;7.30;6.50;;;;;;;18.95;60.34;94138.09;5107372;28;20185;-49
2023/04/18 07:02:38;;;;;;;8.13;6.07;;;;;;;18.99;60.17;94136.69;5107872;28;20181;-48
2023/04/18 07:05:06;;;;;;;7.33;6.63;;;;;;;19.02;59.93;94141.47;5107126;28;20189;-47
2023/04/18 07:07:34;;;;;;;7.67;6.97;;;;;;;19.07;59.77;94143.44;5106758;28;20203;-49
2023/04/18 07:10:02;;;;;;;8.27;6.67;;;;;;;19.17;59.33;94143.81;5107064;28;20233;-47
2023/04/18 07:12:29;;;;;;;6.80;6.27;;;;;;;19.14;59.20;94124.31;5107037;28;20224;-48
2023/04/18 07:14:56;;;;;;;7.90;7.17;;;;;;;19.33;58.90;94138.19;5106638;28;20188;-49
2023/04/18 07:17:23;;;;;;;7.17;6.47;;;;;;;19.42;58.65;94146.53;5106741;28;20621;-47
2023/04/18 07:19:49;;;;;;;7.53;6.80;;;;;;;19.50;58.43;94144.50;5107214;28;20671;-48
2023/04/18 07:22:16;;;;;;;7.13;6.53;;;;;;;19.62;58.19;94149.88;5106683;28;20193;-48
2023/04/18 07:24:43;;;;;;;7.37;6.67;;;;;;;19.76;57.52;94148.00;5107209;28;20192;-48
2023/04/18 07:27:12;;;;;;;9.93;7.40;;;;;;;19.99;57.44;94150.06;5107414;28;20577;-46
2023/04/18 07:29:38;;;;;;;7.37;6.67;;;;;;;20.21;56.78;94150.56;5107558;28;20630;-46
2023/04/18 07:32:05;;;;;;;7.73;6.93;;;;;;;20.45;56.83;94157.56;5107220;28;20216;-47
2023/04/18 07:34:32;;;;;;;8.13;7.33;;;;;;;20.65;56.17;94125.47;5106663;28;20204;-48
2023/04/18 07:37:00;;;;;;;7.93;7.20;;;;;;;21.11;55.84;94143.19;5106514;28;20185;-48
2023/04/18 07:39:27;;;;;;;9.07;7.90;;;;;;;21.33;55.50;94142.81;5106465;28;20193;-48
2023/04/18 07:41:53;;;;;;;8.17;7.40;;;;;;;21.53;55.21;94151.97;5106512;28;20284;-49
2023/04/18 07:44:24;;;;;;;7.50;6.80;;;;;;;21.71;55.04;94150.34;5106552;28;20192;-48
2023/04/18 07:46:51;;;;;;;8.60;6.13;;;;;;;21.90;54.74;94154.53;5106373;28;20193;-49
2023/04/18 07:49:18;;;;;;;7.32;6.72;;;;;;;22.02;54.36;94134.53;5106528;28;20196;-48
2023/04/18 07:51:45;;;;;;;7.85;7.05;;;;;;;22.32;54.07;94148.56;5107203;28;20216;-49
2023/04/18 07:54:12;;;;;;;7.95;7.20;;;;;;;22.39;53.91;94150.03;5106538;28;20185;-48
2023/04/18 07:56:39;;;;;;;7.28;6.63;;;;;;;22.38;53.81;94151.06;5106344;28;20185;-49
2023/04/18 07:59:05;;;;;;;7.05;6.30;;;;;;;22.35;53.94;94156.72;5109809;28;20675;-47
2023/04/18 08:01:34;;;;;;;7.35;6.75;;;;;;;22.20;53.67;94151.94;5110282;28;20208;-49
2023/04/18 08:04:01;;;;;;;6.70;6.10;;;;;;;22.25;53.67;94165.09;5110760;28;20189;-46
2023/04/18 08:06:28;;;;;;;7.75;6.95;;;;;;;22.20;53.30;94164.16;5110624;28;20291;-46
2023/04/18 08:08:55;;;;;;;6.55;5.97;;;;;;;22.17;53.31;94162.78;5110487;28;20608;-48
2023/04/18 08:11:21;;;;;;;7.97;6.60;;;;;;;22.15;53.09;94167.44;5110632;28;20278;-50
2023/04/18 08:13:48;;;;;;;7.63;6.93;;;;;;;22.12;53.03;94164.44;5110285;28;20203;-49
2023/04/18 08:16:15;;;;;;;7.18;6.57;;;;;;;22.11;52.64;94170.69;5109960;28;20651;-51
2023/04/18 08:18:43;;;;;;;6.95;6.25;;;;;;;22.14;52.29;94167.66;5110348;28;20189;-50
2023/04/18 08:21:10;;;;;;;6.88;6.28;;;;;;;22.19;52.25;94162.56;5110438;28;20629;-47
2023/04/18 08:23:37;;;;;;;6.60;6.00;;;;;;;22.20;51.96;94164.97;5109975;28;20191;-48
2023/04/18 08:26:04;;;;;;;6.72;6.03;;;;;;;22.26;51.65;94173.69;5109537;28;20193;-47
2023/04/18 08:28:30;;;;;;;7.55;6.88;;;;;;;22.28;51.63;94174.28;5110330;28;20246;-48
2023/04/18 08:30:58;;;;;;;7.57;6.90;;;;;;;22.33;51.35;94168.41;5108857;28;20196;-47
2023/04/18 08:33:26;;;;;;;6.45;5.85;;;;;;;22.44;51.12;94168.41;5110477;28;20196;-48
2023/04/18 08:35:54;;;;;;;6.30;5.75;;;;;;;22.63;50.86;94168.34;5110403;28;20701;-49
2023/04/18 08:38:21;;;;;;;7.00;6.40;;;;;;;22.81;50.21;94170.06;5110144;28;20649;-48
2023/04/18 08:40:48;;;;;;;7.18;5.80;;;;;;;22.84;49.94;94146.13;5110371;28;20213;-50
2023/04/18 08:43:15;;;;;;;8.27;6.65;;;;;;;23.04;49.77;94147.38;5110339;28;20185;-47
2023/04/18 08:45:42;;;;;;;6.45;5.95;;;;;;;23.36;49.30;94167.91;5109227;28;20200;-49
2023/04/18 08:48:11;;;;;;;6.00;5.50;;;;;;;23.57;48.96;94170.91;5110257;28;20329;-47
2023/04/18 08:50:38;;;;;;;6.55;5.50;;;;;;;23.77;48.84;94163.50;5109713;28;20669;-49
2023/04/18 08:53:07;;;;;;;6.40;5.75;;;;;;;23.95;48.64;94158.09;5109241;28;20761;-47
2023/04/18 08:55:34;;;;;;;6.10;5.57;;;;;;;24.09;48.18;94156.00;5109525;28;20197;-49
2023/04/18 08:58:01;;;;;;;6.07;5.47;;;;;;;24.18;48.19;94159.84;5109386;28;20189;-50
2023/04/18 09:00:29;;;;;;;5.68;5.18;;;;;;;24.19;48.29;94153.56;5109123;28;20192;-49
2023/04/18 09:02:56;;;;;;;7.32;6.25;;;;;;;24.27;48.03;94153.19;5109187;28;20193;-49
2023/04/18 09:05:24;;;;;;;6.07;5.47;;;;;;;24.40;47.77;94167.03;5110221;28;20189;-50
2023/04/18 09:07:53;;;;;;;6.40;5.80;;;;;;;24.47;47.45;94159.81;5108907;28;20185;-49
2023/04/18 09:10:29;;;;;;;6.15;5.65;;;;;;;24.58;47.59;94168.63;5109517;28;20236;-48
2023/04/18 09:12:58;;;;;;;6.00;5.50;;;;;;;24.73;47.28;94161.78;5109350;28;20603;-50
2023/04/18 09:15:27;;;;;;;7.70;5.63;;;;;;;24.94;46.74;94164.72;5108869;28;20614;-49
2023/04/18 09:17:56;;;;;;;5.57;5.07;;;;;;;25.14;46.44;94167.66;5109500;28;20193;-49
2023/04/18 09:20:33;;;;;;;5.90;5.30;;;;;;;25.40;46.39;94163.56;5109225;28;20194;-48
2023/04/18 09:23:01;;;;;;;6.55;5.60;;;;;;;25.68;45.68;94162.56;5108937;28;20195;-49
2023/04/18 09:25:33;;;;;;;5.78;5.28;;;;;;;25.85;45.77;94154.66;5108938;28;20650;-48
2023/04/18 09:28:01;;;;;;;5.40;4.90;;;;;;;25.97;45.09;94150.09;5108361;28;20196;-48
2023/04/18 09:30:38;;;;;;;5.82;5.18;;;;;;;26.13;45.00;94151.03;5109232;28;20204;-50
2023/04/18 09:33:08;;;;;;;5.82;5.32;;;;;;;26.21;44.53;94134.06;5108712;28;20227;-49
2023/04/18 09:35:35;;;;;;;5.38;4.97;;;;;;;26.25;45.10;94151.69;5108121;28;20185;-49
2023/04/18 09:38:02;;;;;;;5.60;5.10;;;;;;;26.22;44.81;94156.63;5108236;28;20220;-50
2023/04/18 09:40:31;;;;;;;5.75;5.22;;;;;;;26.09;45.14;94165.69;5107750;28;20193;-49
2023/04/18 09:42:57;;;;;;;6.07;5.28;;;;;;;25.94;45.37;94170.75;5108014;28;20181;-47
2023/04/18 09:45:25;;;;;;;5.35;4.85;;;;;;;25.75;44.94;94159.78;5107949;28;20204;-48
2023/04/18 09:47:53;;;;;;;5.72;5.22;;;;;;;25.47;44.83;94151.06;5108989;28;20197;-47
2023/04/18 09:50:20;;;;;;;7.07;5.50;;;;;;;25.36;44.50;94161.66;5108635;28;20189;-50
2023/04/18 09:52:48;;;;;;;5.20;4.70;;;;;;;25.20;44.69;94156.22;5108632;28;20255;-48
2023/04/18 09:55:16;;;;;;;5.50;4.57;;;;;;;25.13;44.32;94162.66;5107965;28;20287;-50
2023/04/18 09:57:45;;;;;;;4.50;4.10;;;;;;;25.06;44.73;94157.56;5108304;28;20195;-49
2023/04/18 10:00:19;;;;;;;5.00;4.50;;;;;;;25.00;44.52;94156.72;5108626;28;20333;-48
2023/04/18 10:02:51;;;;;;;4.55;4.10;;;;;;;24.93;44.64;94157.91;5108175;28;20207;-50
2023/04/18 10:05:19;;;;;;;4.65;4.25;;;;;;;24.86;44.26;94162.50;5108594;28;20196;-47
2023/04/18 10:07:47;;;;;;;4.60;4.20;;;;;;;24.43;44.24;94109.81;5108742;28;20189;-49
2023/04/18 10:10:14;;;;;;;4.53;4.10;;;;;;;24.73;44.48;94159.16;5108551;28;20805;-49
2023/04/18 10:12:41;;;;;;;4.25;3.85;;;;;;;24.69;44.72;94157.28;5107816;28;20221;-50
2023/04/18 10:15:11;;;;;;;4.50;4.10;;;;;;;24.63;44.78;94147.78;5107847;28;20197;-48
2023/04/18 10:17:43;;;;;;;3.22;3.00;;;;;;;24.56;44.53;94144.50;5108221;28;20284;-47
2023/04/18 10:20:18;;;;;;;4.30;3.90;;;;;;;24.49;44.90;94152.53;5107570;28;20253;-48
2023/04/18 10:22:45;;;;;;;4.20;3.83;;;;;;;24.42;44.49;94150.06;5107855;28;20189;-48
2023/04/18 10:25:12;;;;;;;3.67;3.38;;;;;;;24.35;44.79;94145.97;5107257;28;20685;-47
2023/04/18 10:27:58;;;;;;;4.07;3.78;;;;;;;24.25;45.03;94147.38;5107423;28;20250;-49
2023/04/18 10:31:02;;;;;;;3.58;3.28;;;;;;;24.18;44.93;94146.75;5107422;28;20181;-49
2023/04/18 10:33:33;;;;;;;4.03;3.70;;;;;;;24.10;45.17;94152.38;5107516;28;20246;-49
2023/04/18 10:36:02;;;;;;;4.07;3.67;;;;;;;24.03;45.27;94143.88;5107775;28;20572;-49
2023/04/18 10:38:29;;;;;;;4.28;3.40;;;;;;;23.99;45.23;94145.38;5107520;28;20181;-49
2023/04/18 10:41:14;;;;;;;3.35;3.08;;;;;;;23.93;45.27;94141.09;5108257;28;20188;-50
2023/04/18 10:44:17;;;;;;;3.85;3.55;;;;;;;23.91;45.13;94140.50;5107012;28;20309;-47
2023/04/18 10:47:21;;;;;;;3.97;3.58;;;;;;;23.59;45.18;94101.00;5102315;28;20279;-49
2023/04/18 10:49:57;;;;;;;3.50;3.20;;;;;;;23.98;45.10;94147.19;5106959;28;20272;-48
2023/04/18 10:52:24;;;;;;;5.88;3.70;;;;;;;24.10;44.90;94138.53;5107717;28;20277;-49
2023/04/18 10:54:55;;;;;;;3.75;3.33;;;;;;;24.28;44.64;94139.09;5107483;28;20615;-49
2023/04/18 10:57:22;;;;;;;3.83;3.53;;;;;;;24.39;44.08;94120.97;5107291;28;20270;-49
2023/04/18 10:59:50;;;;;;;3.95;3.65;;;;;;;24.78;43.73;94140.16;5106767;28;20205;-50
2023/04/18 11:02:25;;;;;;;3.90;3.60;;;;;;;24.95;43.47;94130.44;5107252;28;20200;-48
2023/04/18 11:04:52;;;;;;;3.40;3.10;;;;;;;24.99;43.57;94122.91;5107119;28;20192;-48
2023/04/18 11:07:20;;;;;;;3.25;3.05;;;;;;;25.03;43.62;94124.03;5107740;28;20199;-48
2023/04/18 11:09:53;;;;;;;3.80;3.38;;;;;;;25.02;43.42;94130.28;5107143;28;20731;-49
2023/04/18 11:12:20;;;;;;;2.78;2.58;;;;;;;24.87;43.57;94120.44;5107195;28;20254;-50
2023/04/18 11:14:50;;;;;;;3.40;3.10;;;;;;;24.81;43.61;94133.66;5106993;28;20193;-48
2023/04/18 11:17:23;;;;;;;3.17;2.90;;;;;;;24.62;43.61;94123.44;5106831;28;20249;-49
2023/04/18 11:19:50;;;;;;;2.70;2.40;;;;;;;24.47;43.93;94123.19;5106588;28;20208;-49
2023/04/18 11:22:18;;;;;;;2.95;2.75;;;;;;;24.35;44.20;94114.59;5107230;28;20197;-48
2023/04/18 11:24:45;;;;;;;4.80;2.75;;;;;;;24.32;43.86;94123.72;5107272;28;20193;-48
2023/04/18 11:27:12;;;;;;;2.63;2.42;;;;;;;24.33;44.03;94112.25;5106032;28;20189;-49
2023/04/18 11:29:39;;;;;;;3.00;2.80;;;;;;;24.44;43.71;94108.81;5107389;28;20587;-48
2023/04/18 11:32:07;;;;;;;2.92;2.72;;;;;;;24.48;43.66;94103.88;5106060;28;20209;-48
2023/04/18 11:34:35;;;;;;;4.40;3.25;;;;;;;24.59;43.54;94102.22;5106193;28;20223;-49
2023/04/18 11:37:06;;;;;;;3.10;2.83;;;;;;;24.65;43.39;94102.03;5106613;28;20192;-50